ORBI/SDA METAR and TAF weather

Enter ICAO airport designator
Station Type Date Time Source
ORBI METAR 2022/01/29 11:00 UTC NOAA

ORBI 291100Z 20004KT 170V230 9999 BKN033 16/01 Q1022 NOSIG


Station Type Date Time Source
ORBI Decoded METAR 2022/01/29 11:00 UTC NOAA

Station name not available
Jan 29, 2022 - 06:00 AM EST / 2022.01.29 1100 UTC
Wind: from the SSW (200 degrees) at 5 MPH (4 KT) (direction variable):0
Visibility: greater than 7 mile(s):0
Sky conditions: mostly cloudy
Temperature: 60 F (16 C)
Dew Point: 33 F (1 C)
Relative Humidity: 36%
Pressure (altimeter): 30.18 in. Hg (1022 hPa)
ob: ORBI 291100Z 20004KT 170V230 9999 BKN033 16/01 Q1022 NOSIG
cycle: 11

Station Type Date Time Source
ORBI TAF 2022/01/29 12:04 UTC NOAA

TAF ORBI 291000Z 2912/3012 16010KT 9999 BKN040 PROB30
TEMPO 2912/2915 -RA
BECMG 2915/2917 VRB03KT

Example: see airport list